sensor_id;sensor_type;location;lat;lon;timestamp;P1;durP1;ratioP1;P2;durP2;ratioP2
1887;SDS011;944;51.574;6.980;2023-03-15T00:01:32;30.20;;;4.27;;
1887;SDS011;944;51.574;6.980;2023-03-15T00:04:01;8.57;;;2.73;;
1887;SDS011;944;51.574;6.980;2023-03-15T00:06:32;7.77;;;3.10;;
1887;SDS011;944;51.574;6.980;2023-03-15T00:09:00;13.40;;;3.50;;
1887;SDS011;944;51.574;6.980;2023-03-15T00:11:28;10.70;;;3.30;;
1887;SDS011;944;51.574;6.980;2023-03-15T00:13:56;20.73;;;4.30;;
1887;SDS011;944;51.574;6.980;2023-03-15T00:16:23;10.03;;;3.27;;
1887;SDS011;944;51.574;6.980;2023-03-15T00:18:54;22.03;;;4.37;;
1887;SDS011;944;51.574;6.980;2023-03-15T00:21:26;5.87;;;2.70;;
1887;SDS011;944;51.574;6.980;2023-03-15T00:24:03;13.87;;;3.30;;
1887;SDS011;944;51.574;6.980;2023-03-15T00:26:32;13.93;;;4.23;;
1887;SDS011;944;51.574;6.980;2023-03-15T00:29:21;22.83;;;4.10;;
1887;SDS011;944;51.574;6.980;2023-03-15T00:32:05;12.37;;;3.73;;
1887;SDS011;944;51.574;6.980;2023-03-15T00:34:59;10.23;;;3.63;;
1887;SDS011;944;51.574;6.980;2023-03-15T00:37:45;12.03;;;4.17;;
1887;SDS011;944;51.574;6.980;2023-03-15T00:40:25;23.07;;;5.03;;
1887;SDS011;944;51.574;6.980;2023-03-15T00:43:15;17.40;;;6.10;;
1887;SDS011;944;51.574;6.980;2023-03-15T00:46:02;18.33;;;5.63;;
1887;SDS011;944;51.574;6.980;2023-03-15T00:52:47;16.13;;;6.63;;
1887;SDS011;944;51.574;6.980;2023-03-15T00:59:05;23.27;;;6.57;;
1887;SDS011;944;51.574;6.980;2023-03-15T01:02:18;28.43;;;7.67;;
1887;SDS011;944;51.574;6.980;2023-03-15T01:05:22;26.13;;;7.57;;
1887;SDS011;944;51.574;6.980;2023-03-15T01:11:23;16.80;;;7.77;;
1887;SDS011;944;51.574;6.980;2023-03-15T01:14:12;25.67;;;7.87;;
1887;SDS011;944;51.574;6.980;2023-03-15T01:17:10;14.23;;;8.87;;
1887;SDS011;944;51.574;6.980;2023-03-15T01:19:54;18.87;;;7.77;;
1887;SDS011;944;51.574;6.980;2023-03-15T01:22:46;15.13;;;7.63;;
1887;SDS011;944;51.574;6.980;2023-03-15T01:28:59;11.80;;;6.37;;
1887;SDS011;944;51.574;6.980;2023-03-15T01:31:50;12.10;;;5.80;;
1887;SDS011;944;51.574;6.980;2023-03-15T01:38:51;11.43;;;6.07;;
1887;SDS011;944;51.574;6.980;2023-03-15T01:56:45;17.17;;;5.50;;
1887;SDS011;944;51.574;6.980;2023-03-15T02:33:27;15.10;;;8.83;;
1887;SDS011;944;51.574;6.980;2023-03-15T02:36:42;13.00;;;9.70;;
1887;SDS011;944;51.574;6.980;2023-03-15T02:39:53;14.40;;;10.13;;
1887;SDS011;944;51.574;6.980;2023-03-15T02:46:35;16.57;;;11.00;;
1887;SDS011;944;51.574;6.980;2023-03-15T03:27:49;19.00;;;12.80;;
1887;SDS011;944;51.574;6.980;2023-03-15T03:40:15;16.17;;;9.17;;
1887;SDS011;944;51.574;6.980;2023-03-15T04:09:30;10.20;;;8.03;;
1887;SDS011;944;51.574;6.980;2023-03-15T04:16:42;16.57;;;8.50;;
1887;SDS011;944;51.574;6.980;2023-03-15T05:16:15;4.90;;;4.40;;
1887;SDS011;944;51.574;6.980;2023-03-15T05:27:39;9.80;;;7.00;;
1887;SDS011;944;51.574;6.980;2023-03-15T08:58:57;22.67;;;12.63;;
1887;SDS011;944;51.574;6.980;2023-03-15T09:20:17;18.43;;;7.50;;
1887;SDS011;944;51.574;6.980;2023-03-15T09:23:07;18.53;;;8.90;;
1887;SDS011;944;51.574;6.980;2023-03-15T09:26:27;14.10;;;7.37;;
1887;SDS011;944;51.574;6.980;2023-03-15T09:29:08;33.17;;;8.10;;
1887;SDS011;944;51.574;6.980;2023-03-15T09:32:03;31.23;;;11.10;;
1887;SDS011;944;51.574;6.980;2023-03-15T09:34:34;27.90;;;12.90;;
1887;SDS011;944;51.574;6.980;2023-03-15T09:37:04;21.40;;;12.07;;
1887;SDS011;944;51.574;6.980;2023-03-15T09:39:32;19.77;;;10.60;;
1887;SDS011;944;51.574;6.980;2023-03-15T09:41:59;16.20;;;9.27;;
1887;SDS011;944;51.574;6.980;2023-03-15T09:44:52;18.20;;;9.53;;
1887;SDS011;944;51.574;6.980;2023-03-15T09:47:35;14.00;;;7.17;;
1887;SDS011;944;51.574;6.980;2023-03-15T09:50:11;19.23;;;7.07;;
1887;SDS011;944;51.574;6.980;2023-03-15T09:52:58;12.40;;;6.83;;
1887;SDS011;944;51.574;6.980;2023-03-15T09:55:37;16.17;;;8.30;;
1887;SDS011;944;51.574;6.980;2023-03-15T09:58:09;16.70;;;7.50;;
1887;SDS011;944;51.574;6.980;2023-03-15T10:00:42;14.07;;;7.20;;
1887;SDS011;944;51.574;6.980;2023-03-15T10:03:18;29.50;;;9.33;;
1887;SDS011;944;51.574;6.980;2023-03-15T10:05:53;16.60;;;7.60;;
1887;SDS011;944;51.574;6.980;2023-03-15T10:08:26;19.53;;;8.33;;
1887;SDS011;944;51.574;6.980;2023-03-15T10:10:59;15.07;;;8.23;;
1887;SDS011;944;51.574;6.980;2023-03-15T10:13:40;18.40;;;8.03;;
1887;SDS011;944;51.574;6.980;2023-03-15T10:16:25;26.63;;;8.60;;
1887;SDS011;944;51.574;6.980;2023-03-15T10:19:05;17.20;;;8.80;;
1887;SDS011;944;51.574;6.980;2023-03-15T10:21:42;20.17;;;7.83;;
1887;SDS011;944;51.574;6.980;2023-03-15T10:28:08;15.93;;;7.60;;
1887;SDS011;944;51.574;6.980;2023-03-15T10:30:47;19.63;;;7.53;;
1887;SDS011;944;51.574;6.980;2023-03-15T10:36:57;11.53;;;5.30;;
1887;SDS011;944;51.574;6.980;2023-03-15T10:39:30;14.97;;;5.80;;
1887;SDS011;944;51.574;6.980;2023-03-15T11:21:36;6.87;;;2.50;;
1887;SDS011;944;51.574;6.980;2023-03-15T11:24:05;7.07;;;3.30;;
1887;SDS011;944;51.574;6.980;2023-03-15T11:26:33;8.70;;;2.50;;
1887;SDS011;944;51.574;6.980;2023-03-15T11:29:03;7.20;;;2.37;;
1887;SDS011;944;51.574;6.980;2023-03-15T11:31:39;5.57;;;2.37;;
1887;SDS011;944;51.574;6.980;2023-03-15T11:34:08;12.13;;;2.60;;
1887;SDS011;944;51.574;6.980;2023-03-15T11:36:43;6.40;;;2.37;;
1887;SDS011;944;51.574;6.980;2023-03-15T11:39:18;7.00;;;2.60;;
1887;SDS011;944;51.574;6.980;2023-03-15T11:41:57;14.83;;;3.00;;
1887;SDS011;944;51.574;6.980;2023-03-15T11:44:30;4.33;;;2.70;;
1887;SDS011;944;51.574;6.980;2023-03-15T11:47:04;8.10;;;2.70;;
1887;SDS011;944;51.574;6.980;2023-03-15T11:49:41;7.03;;;3.37;;
1887;SDS011;944;51.574;6.980;2023-03-15T11:52:14;4.90;;;3.00;;
1887;SDS011;944;51.574;6.980;2023-03-15T11:54:42;8.83;;;3.67;;
1887;SDS011;944;51.574;6.980;2023-03-15T12:00:15;4.20;;;2.70;;
1887;SDS011;944;51.574;6.980;2023-03-15T12:03:22;11.10;;;2.37;;
1887;SDS011;944;51.574;6.980;2023-03-15T12:06:11;7.93;;;2.20;;
1887;SDS011;944;51.574;6.980;2023-03-15T12:12:36;3.67;;;1.90;;
1887;SDS011;944;51.574;6.980;2023-03-15T12:15:14;9.83;;;2.20;;
1887;SDS011;944;51.574;6.980;2023-03-15T12:18:12;7.10;;;2.20;;
1887;SDS011;944;51.574;6.980;2023-03-15T12:20:49;6.23;;;2.00;;
1887;SDS011;944;51.574;6.980;2023-03-15T12:23:44;4.20;;;2.17;;
1887;SDS011;944;51.574;6.980;2023-03-15T12:27:12;5.43;;;1.70;;
1887;SDS011;944;51.574;6.980;2023-03-15T12:33:25;2.50;;;2.30;;
1887;SDS011;944;51.574;6.980;2023-03-15T13:28:53;6.93;;;2.30;;
1887;SDS011;944;51.574;6.980;2023-03-15T13:31:27;6.03;;;2.20;;
1887;SDS011;944;51.574;6.980;2023-03-15T16:28:04;2.73;;;2.03;;
1887;SDS011;944;51.574;6.980;2023-03-15T16:30:33;5.50;;;2.40;;
1887;SDS011;944;51.574;6.980;2023-03-15T16:33:00;12.13;;;2.87;;
1887;SDS011;944;51.574;6.980;2023-03-15T16:35:29;6.93;;;2.97;;
1887;SDS011;944;51.574;6.980;2023-03-15T16:37:58;4.50;;;2.13;;
1887;SDS011;944;51.574;6.980;2023-03-15T16:40:29;15.87;;;2.80;;
1887;SDS011;944;51.574;6.980;2023-03-15T16:42:59;6.13;;;2.50;;
1887;SDS011;944;51.574;6.980;2023-03-15T16:49:13;4.00;;;2.00;;
1887;SDS011;944;51.574;6.980;2023-03-15T16:51:40;3.50;;;1.80;;
1887;SDS011;944;51.574;6.980;2023-03-15T16:54:10;5.43;;;2.07;;
1887;SDS011;944;51.574;6.980;2023-03-15T16:56:38;6.80;;;2.70;;
1887;SDS011;944;51.574;6.980;2023-03-15T16:59:05;4.20;;;1.93;;
1887;SDS011;944;51.574;6.980;2023-03-15T17:01:36;5.87;;;2.70;;
1887;SDS011;944;51.574;6.980;2023-03-15T17:07:10;5.30;;;2.57;;
1887;SDS011;944;51.574;6.980;2023-03-15T17:10:08;5.40;;;2.37;;
1887;SDS011;944;51.574;6.980;2023-03-15T17:16:34;7.90;;;2.33;;
1887;SDS011;944;51.574;6.980;2023-03-15T17:33:15;8.23;;;3.50;;
1887;SDS011;944;51.574;6.980;2023-03-15T17:36:17;7.80;;;2.70;;
1887;SDS011;944;51.574;6.980;2023-03-15T17:39:15;7.07;;;3.50;;
1887;SDS011;944;51.574;6.980;2023-03-15T17:42:08;6.70;;;3.80;;
1887;SDS011;944;51.574;6.980;2023-03-15T17:55:09;12.03;;;4.10;;
1887;SDS011;944;51.574;6.980;2023-03-15T17:58:04;9.23;;;4.30;;
1887;SDS011;944;51.574;6.980;2023-03-15T18:07:36;10.83;;;3.40;;
1887;SDS011;944;51.574;6.980;2023-03-15T18:10:16;8.57;;;2.80;;
1887;SDS011;944;51.574;6.980;2023-03-15T18:14:51;7.20;;;3.10;;
1887;SDS011;944;51.574;6.980;2023-03-15T18:17:13;16.10;;;3.60;;
1887;SDS011;944;51.574;6.980;2023-03-15T18:23:40;11.50;;;5.23;;
1887;SDS011;944;51.574;6.980;2023-03-15T18:26:43;14.57;;;5.37;;
1887;SDS011;944;51.574;6.980;2023-03-15T18:30:07;17.73;;;5.00;;
1887;SDS011;944;51.574;6.980;2023-03-15T18:33:04;13.17;;;5.40;;
1887;SDS011;944;51.574;6.980;2023-03-15T18:36:17;14.93;;;4.50;;
1887;SDS011;944;51.574;6.980;2023-03-15T18:39:29;8.90;;;3.77;;
1887;SDS011;944;51.574;6.980;2023-03-15T18:42:25;10.43;;;4.40;;
1887;SDS011;944;51.574;6.980;2023-03-15T18:45:12;9.20;;;4.53;;
1887;SDS011;944;51.574;6.980;2023-03-15T18:47:59;10.50;;;4.97;;
1887;SDS011;944;51.574;6.980;2023-03-15T18:50:37;15.67;;;5.60;;
1887;SDS011;944;51.574;6.980;2023-03-15T18:53:25;9.93;;;5.00;;
1887;SDS011;944;51.574;6.980;2023-03-15T18:58:54;11.90;;;5.03;;
1887;SDS011;944;51.574;6.980;2023-03-15T19:04:24;11.60;;;4.50;;
1887;SDS011;944;51.574;6.980;2023-03-15T19:06:59;8.27;;;3.80;;
1887;SDS011;944;51.574;6.980;2023-03-15T19:09:34;11.47;;;3.47;;
1887;SDS011;944;51.574;6.980;2023-03-15T19:12:15;8.73;;;4.47;;
1887;SDS011;944;51.574;6.980;2023-03-15T19:14:48;8.13;;;3.70;;
1887;SDS011;944;51.574;6.980;2023-03-15T21:55:42;17.30;;;4.60;;
1887;SDS011;944;51.574;6.980;2023-03-15T21:58:10;13.53;;;5.50;;
1887;SDS011;944;51.574;6.980;2023-03-15T22:00:38;13.60;;;5.73;;
1887;SDS011;944;51.574;6.980;2023-03-15T22:03:07;11.07;;;5.33;;
1887;SDS011;944;51.574;6.980;2023-03-15T22:05:38;11.10;;;5.57;;
1887;SDS011;944;51.574;6.980;2023-03-15T22:08:09;11.80;;;5.10;;
1887;SDS011;944;51.574;6.980;2023-03-15T22:10:36;13.40;;;4.37;;
1887;SDS011;944;51.574;6.980;2023-03-15T22:13:08;14.27;;;4.70;;
1887;SDS011;944;51.574;6.980;2023-03-15T22:15:40;25.13;;;4.73;;
1887;SDS011;944;51.574;6.980;2023-03-15T22:18:08;12.40;;;5.00;;
1887;SDS011;944;51.574;6.980;2023-03-15T22:20:38;19.07;;;5.37;;
